sensor_id;sensor_type;location;lat;lon;timestamp;P1;durP1;ratioP1;P2;durP2;ratioP2
42420;SDS011;28063;48.140;11.588;2023-04-25T00:01:10;1.20;;;0.82;;
42420;SDS011;28063;48.140;11.588;2023-04-25T00:03:38;1.85;;;0.60;;
42420;SDS011;28063;48.140;11.588;2023-04-25T00:06:04;1.02;;;0.90;;
42420;SDS011;28063;48.140;11.588;2023-04-25T00:08:30;2.17;;;0.70;;
42420;SDS011;28063;48.140;11.588;2023-04-25T00:10:56;0.95;;;0.80;;
42420;SDS011;28063;48.140;11.588;2023-04-25T00:13:22;1.50;;;0.63;;
42420;SDS011;28063;48.140;11.588;2023-04-25T00:15:48;0.80;;;0.70;;
42420;SDS011;28063;48.140;11.588;2023-04-25T00:18:14;0.60;;;0.60;;
42420;SDS011;28063;48.140;11.588;2023-04-25T00:20:40;0.50;;;0.50;;
42420;SDS011;28063;48.140;11.588;2023-04-25T00:23:09;0.95;;;0.55;;
42420;SDS011;28063;48.140;11.588;2023-04-25T00:25:35;1.20;;;0.57;;
42420;SDS011;28063;48.140;11.588;2023-04-25T00:28:01;0.82;;;0.65;;
42420;SDS011;28063;48.140;11.588;2023-04-25T00:30:26;0.60;;;0.60;;
42420;SDS011;28063;48.140;11.588;2023-04-25T00:32:52;0.80;;;0.43;;
42420;SDS011;28063;48.140;11.588;2023-04-25T00:35:18;0.60;;;0.60;;
42420;SDS011;28063;48.140;11.588;2023-04-25T00:37:43;0.90;;;0.70;;
42420;SDS011;28063;48.140;11.588;2023-04-25T00:40:10;0.57;;;0.57;;
42420;SDS011;28063;48.140;11.588;2023-04-25T00:42:37;0.47;;;0.43;;
42420;SDS011;28063;48.140;11.588;2023-04-25T00:45:04;1.15;;;0.50;;
42420;SDS011;28063;48.140;11.588;2023-04-25T00:47:32;0.43;;;0.40;;
42420;SDS011;28063;48.140;11.588;2023-04-25T00:49:58;1.95;;;0.70;;
42420;SDS011;28063;48.140;11.588;2023-04-25T00:52:24;2.00;;;0.47;;
42420;SDS011;28063;48.140;11.588;2023-04-25T00:54:49;0.50;;;0.50;;
42420;SDS011;28063;48.140;11.588;2023-04-25T00:57:15;0.40;;;0.40;;
42420;SDS011;28063;48.140;11.588;2023-04-25T00:59:42;0.55;;;0.55;;
42420;SDS011;28063;48.140;11.588;2023-04-25T01:02:11;0.75;;;0.68;;
42420;SDS011;28063;48.140;11.588;2023-04-25T01:04:37;0.60;;;0.60;;
42420;SDS011;28063;48.140;11.588;2023-04-25T01:07:04;1.48;;;1.00;;
42420;SDS011;28063;48.140;11.588;2023-04-25T01:09:30;0.70;;;0.70;;
42420;SDS011;28063;48.140;11.588;2023-04-25T01:11:57;0.50;;;0.50;;
42420;SDS011;28063;48.140;11.588;2023-04-25T01:14:22;0.70;;;0.70;;
42420;SDS011;28063;48.140;11.588;2023-04-25T01:16:48;0.60;;;0.60;;
42420;SDS011;28063;48.140;11.588;2023-04-25T01:19:16;1.40;;;0.70;;
42420;SDS011;28063;48.140;11.588;2023-04-25T01:21:43;0.77;;;0.57;;
42420;SDS011;28063;48.140;11.588;2023-04-25T01:24:08;0.55;;;0.55;;
42420;SDS011;28063;48.140;11.588;2023-04-25T01:26:34;0.90;;;0.80;;
42420;SDS011;28063;48.140;11.588;2023-04-25T01:29:00;1.02;;;0.70;;
42420;SDS011;28063;48.140;11.588;2023-04-25T01:31:27;0.95;;;0.52;;
42420;SDS011;28063;48.140;11.588;2023-04-25T01:33:53;0.50;;;0.50;;
42420;SDS011;28063;48.140;11.588;2023-04-25T01:36:19;1.15;;;1.05;;
42420;SDS011;28063;48.140;11.588;2023-04-25T01:38:47;1.02;;;0.90;;
42420;SDS011;28063;48.140;11.588;2023-04-25T01:41:13;1.10;;;0.85;;
42420;SDS011;28063;48.140;11.588;2023-04-25T01:43:40;0.82;;;0.60;;
42420;SDS011;28063;48.140;11.588;2023-04-25T01:46:05;1.00;;;0.60;;
42420;SDS011;28063;48.140;11.588;2023-04-25T01:48:31;1.05;;;0.70;;
42420;SDS011;28063;48.140;11.588;2023-04-25T01:50:57;0.90;;;0.80;;
42420;SDS011;28063;48.140;11.588;2023-04-25T01:53:23;0.98;;;0.73;;
42420;SDS011;28063;48.140;11.588;2023-04-25T01:55:49;0.63;;;0.50;;
42420;SDS011;28063;48.140;11.588;2023-04-25T01:58:15;0.60;;;0.60;;
42420;SDS011;28063;48.140;11.588;2023-04-25T02:00:41;0.68;;;0.68;;
42420;SDS011;28063;48.140;11.588;2023-04-25T02:03:06;1.10;;;0.73;;
42420;SDS011;28063;48.140;11.588;2023-04-25T02:05:39;1.13;;;0.65;;
42420;SDS011;28063;48.140;11.588;2023-04-25T02:08:05;1.00;;;0.90;;
42420;SDS011;28063;48.140;11.588;2023-04-25T02:10:33;1.08;;;0.65;;
42420;SDS011;28063;48.140;11.588;2023-04-25T02:12:59;0.47;;;0.43;;
42420;SDS011;28063;48.140;11.588;2023-04-25T02:15:25;1.08;;;0.50;;
42420;SDS011;28063;48.140;11.588;2023-04-25T02:17:50;0.60;;;0.57;;
42420;SDS011;28063;48.140;11.588;2023-04-25T02:20:18;0.68;;;0.60;;
42420;SDS011;28063;48.140;11.588;2023-04-25T02:22:45;0.50;;;0.50;;
42420;SDS011;28063;48.140;11.588;2023-04-25T02:25:11;0.40;;;0.40;;
42420;SDS011;28063;48.140;11.588;2023-04-25T02:27:37;0.60;;;0.60;;
42420;SDS011;28063;48.140;11.588;2023-04-25T02:30:03;0.50;;;0.50;;
42420;SDS011;28063;48.140;11.588;2023-04-25T02:32:31;1.23;;;0.50;;
42420;SDS011;28063;48.140;11.588;2023-04-25T02:34:57;0.50;;;0.50;;
42420;SDS011;28063;48.140;11.588;2023-04-25T02:37:28;0.55;;;0.38;;
42420;SDS011;28063;48.140;11.588;2023-04-25T02:39:54;0.40;;;0.40;;
42420;SDS011;28063;48.140;11.588;2023-04-25T02:42:20;0.60;;;0.60;;
42420;SDS011;28063;48.140;11.588;2023-04-25T02:44:46;0.45;;;0.45;;
42420;SDS011;28063;48.140;11.588;2023-04-25T02:47:12;0.35;;;0.35;;
42420;SDS011;28063;48.140;11.588;2023-04-25T02:49:37;0.40;;;0.40;;
42420;SDS011;28063;48.140;11.588;2023-04-25T02:52:03;0.93;;;0.60;;
42420;SDS011;28063;48.140;11.588;2023-04-25T02:54:29;0.30;;;0.30;;
42420;SDS011;28063;48.140;11.588;2023-04-25T02:56:55;0.28;;;0.28;;
42420;SDS011;28063;48.140;11.588;2023-04-25T02:59:20;0.68;;;0.68;;
42420;SDS011;28063;48.140;11.588;2023-04-25T03:01:46;0.47;;;0.47;;
42420;SDS011;28063;48.140;11.588;2023-04-25T03:04:12;1.25;;;0.50;;
42420;SDS011;28063;48.140;11.588;2023-04-25T03:06:38;0.60;;;0.60;;
42420;SDS011;28063;48.140;11.588;2023-04-25T03:09:03;0.50;;;0.50;;
42420;SDS011;28063;48.140;11.588;2023-04-25T03:11:29;1.83;;;1.20;;
42420;SDS011;28063;48.140;11.588;2023-04-25T03:13:55;0.80;;;0.80;;
42420;SDS011;28063;48.140;11.588;2023-04-25T03:16:21;2.33;;;1.15;;
42420;SDS011;28063;48.140;11.588;2023-04-25T03:18:47;1.85;;;0.82;;
42420;SDS011;28063;48.140;11.588;2023-04-25T03:21:15;3.65;;;1.30;;
42420;SDS011;28063;48.140;11.588;2023-04-25T03:23:41;0.73;;;0.73;;
42420;SDS011;28063;48.140;11.588;2023-04-25T03:26:07;2.33;;;1.05;;
42420;SDS011;28063;48.140;11.588;2023-04-25T03:28:35;1.33;;;0.90;;
42420;SDS011;28063;48.140;11.588;2023-04-25T03:31:00;2.42;;;0.80;;
42420;SDS011;28063;48.140;11.588;2023-04-25T03:33:26;2.42;;;0.93;;
42420;SDS011;28063;48.140;11.588;2023-04-25T03:35:51;1.10;;;0.75;;
42420;SDS011;28063;48.140;11.588;2023-04-25T03:38:17;4.22;;;1.85;;
42420;SDS011;28063;48.140;11.588;2023-04-25T03:40:43;2.20;;;0.85;;
42420;SDS011;28063;48.140;11.588;2023-04-25T03:43:09;1.02;;;0.90;;
42420;SDS011;28063;48.140;11.588;2023-04-25T03:45:35;2.00;;;1.20;;
42420;SDS011;28063;48.140;11.588;2023-04-25T03:48:00;3.10;;;1.38;;
42420;SDS011;28063;48.140;11.588;2023-04-25T03:50:26;1.17;;;1.10;;
42420;SDS011;28063;48.140;11.588;2023-04-25T03:52:52;1.30;;;1.10;;
42420;SDS011;28063;48.140;11.588;2023-04-25T03:55:17;1.23;;;0.88;;
42420;SDS011;28063;48.140;11.588;2023-04-25T03:57:43;2.72;;;0.90;;
42420;SDS011;28063;48.140;11.588;2023-04-25T04:00:09;1.23;;;0.73;;
42420;SDS011;28063;48.140;11.588;2023-04-25T04:02:35;2.20;;;0.90;;
42420;SDS011;28063;48.140;11.588;2023-04-25T04:05:02;3.40;;;0.90;;
42420;SDS011;28063;48.140;11.588;2023-04-25T04:07:28;1.13;;;0.60;;
42420;SDS011;28063;48.140;11.588;2023-04-25T04:09:54;0.80;;;0.80;;
42420;SDS011;28063;48.140;11.588;2023-04-25T04:12:20;1.13;;;0.70;;
42420;SDS011;28063;48.140;11.588;2023-04-25T04:14:46;2.63;;;0.70;;
42420;SDS011;28063;48.140;11.588;2023-04-25T04:17:11;0.90;;;0.90;;
42420;SDS011;28063;48.140;11.588;2023-04-25T04:19:37;0.90;;;0.60;;
42420;SDS011;28063;48.140;11.588;2023-04-25T04:22:02;0.98;;;0.57;;
42420;SDS011;28063;48.140;11.588;2023-04-25T04:24:28;0.35;;;0.35;;
42420;SDS011;28063;48.140;11.588;2023-04-25T04:26:54;1.27;;;0.55;;
42420;SDS011;28063;48.140;11.588;2023-04-25T04:29:20;1.27;;;0.52;;
42420;SDS011;28063;48.140;11.588;2023-04-25T04:31:49;1.58;;;0.88;;
42420;SDS011;28063;48.140;11.588;2023-04-25T04:34:15;0.98;;;0.63;;
42420;SDS011;28063;48.140;11.588;2023-04-25T04:36:47;1.05;;;0.90;;
42420;SDS011;28063;48.140;11.588;2023-04-25T04:39:13;1.15;;;0.60;;
42420;SDS011;28063;48.140;11.588;2023-04-25T04:41:39;0.63;;;0.60;;
42420;SDS011;28063;48.140;11.588;2023-04-25T04:44:05;0.80;;;0.75;;
42420;SDS011;28063;48.140;11.588;2023-04-25T04:46:32;2.88;;;0.80;;
42420;SDS011;28063;48.140;11.588;2023-04-25T04:49:04;0.82;;;0.75;;
42420;SDS011;28063;48.140;11.588;2023-04-25T04:51:30;1.38;;;0.57;;
42420;SDS011;28063;48.140;11.588;2023-04-25T04:53:56;1.25;;;0.70;;
42420;SDS011;28063;48.140;11.588;2023-04-25T04:56:24;0.75;;;0.75;;
42420;SDS011;28063;48.140;11.588;2023-04-25T04:58:50;1.00;;;0.90;;
42420;SDS011;28063;48.140;11.588;2023-04-25T05:01:17;0.73;;;0.73;;
42420;SDS011;28063;48.140;11.588;2023-04-25T05:03:43;0.90;;;0.80;;
42420;SDS011;28063;48.140;11.588;2023-04-25T05:06:08;1.55;;;0.70;;
42420;SDS011;28063;48.140;11.588;2023-04-25T05:08:34;0.73;;;0.73;;
42420;SDS011;28063;48.140;11.588;2023-04-25T05:11:01;1.05;;;0.60;;
42420;SDS011;28063;48.140;11.588;2023-04-25T05:13:27;0.68;;;0.60;;
42420;SDS011;28063;48.140;11.588;2023-04-25T05:15:52;0.40;;;0.40;;
42420;SDS011;28063;48.140;11.588;2023-04-25T05:18:18;1.38;;;0.60;;
42420;SDS011;28063;48.140;11.588;2023-04-25T05:20:44;1.52;;;0.82;;
42420;SDS011;28063;48.140;11.588;2023-04-25T05:23:10;0.75;;;0.75;;
42420;SDS011;28063;48.140;11.588;2023-04-25T05:25:35;0.68;;;0.68;;
42420;SDS011;28063;48.140;11.588;2023-04-25T05:28:01;0.82;;;0.70;;
42420;SDS011;28063;48.140;11.588;2023-04-25T05:30:27;0.77;;;0.73;;
42420;SDS011;28063;48.140;11.588;2023-04-25T05:32:52;2.22;;;1.08;;
42420;SDS011;28063;48.140;11.588;2023-04-25T05:35:18;1.50;;;0.90;;
42420;SDS011;28063;48.140;11.588;2023-04-25T05:37:44;6.32;;;1.45;;
42420;SDS011;28063;48.140;11.588;2023-04-25T05:40:09;1.60;;;1.10;;
42420;SDS011;28063;48.140;11.588;2023-04-25T05:42:35;1.35;;;0.75;;
42420;SDS011;28063;48.140;11.588;2023-04-25T05:45:01;1.13;;;1.02;;
42420;SDS011;28063;48.140;11.588;2023-04-25T05:47:27;1.23;;;0.80;;
42420;SDS011;28063;48.140;11.588;2023-04-25T05:49:53;0.73;;;0.73;;
42420;SDS011;28063;48.140;11.588;2023-04-25T05:52:19;5.60;;;1.13;;
42420;SDS011;28063;48.140;11.588;2023-04-25T05:54:45;1.35;;;1.08;;
42420;SDS011;28063;48.140;11.588;2023-04-25T05:57:20;1.30;;;0.73;;
42420;SDS011;28063;48.140;11.588;2023-04-25T05:59:47;2.20;;;1.38;;
42420;SDS011;28063;48.140;11.588;2023-04-25T06:02:13;4.82;;;1.67;;
42420;SDS011;28063;48.140;11.588;2023-04-25T06:04:38;6.47;;;1.45;;
42420;SDS011;28063;48.140;11.588;2023-04-25T06:07:04;1.17;;;0.90;;
42420;SDS011;28063;48.140;11.588;2023-04-25T06:09:30;5.90;;;1.20;;
42420;SDS011;28063;48.140;11.588;2023-04-25T06:11:55;2.42;;;1.52;;
42420;SDS011;28063;48.140;11.588;2023-04-25T06:14:21;2.17;;;1.27;;
42420;SDS011;28063;48.140;11.588;2023-04-25T06:16:46;2.03;;;1.27;;
42420;SDS011;28063;48.140;11.588;2023-04-25T06:19:12;1.13;;;0.95;;
42420;SDS011;28063;48.140;11.588;2023-04-25T06:21:38;2.38;;;1.00;;
42420;SDS011;28063;48.140;11.588;2023-04-25T06:24:03;3.05;;;1.20;;
42420;SDS011;28063;48.140;11.588;2023-04-25T06:26:29;5.32;;;1.33;;
42420;SDS011;28063;48.140;11.588;2023-04-25T06:28:55;1.27;;;1.10;;
42420;SDS011;28063;48.140;11.588;2023-04-25T06:31:20;3.90;;;1.20;;
42420;SDS011;28063;48.140;11.588;2023-04-25T06:33:46;1.27;;;0.98;;
42420;SDS011;28063;48.140;11.588;2023-04-25T06:36:13;1.52;;;0.90;;
42420;SDS011;28063;48.140;11.588;2023-04-25T06:38:39;3.58;;;1.10;;
42420;SDS011;28063;48.140;11.588;2023-04-25T06:41:04;0.82;;;0.80;;
42420;SDS011;28063;48.140;11.588;2023-04-25T06:43:30;1.13;;;1.02;;
42420;SDS011;28063;48.140;11.588;2023-04-25T06:45:58;0.95;;;0.70;;
42420;SDS011;28063;48.140;11.588;2023-04-25T06:48:25;1.10;;;1.00;;
42420;SDS011;28063;48.140;11.588;2023-04-25T06:50:52;1.05;;;0.80;;
42420;SDS011;28063;48.140;11.588;2023-04-25T06:53:17;0.75;;;0.75;;
42420;SDS011;28063;48.140;11.588;2023-04-25T06:55:43;1.13;;;1.02;;
42420;SDS011;28063;48.140;11.588;2023-04-25T06:58:09;2.35;;;1.17;;
42420;SDS011;28063;48.140;11.588;2023-04-25T07:00:35;2.47;;;1.23;;
42420;SDS011;28063;48.140;11.588;2023-04-25T07:03:01;1.63;;;0.88;;
42420;SDS011;28063;48.140;11.588;2023-04-25T07:05:27;2.03;;;1.00;;
42420;SDS011;28063;48.140;11.588;2023-04-25T07:07:52;2.58;;;1.10;;
42420;SDS011;28063;48.140;11.588;2023-04-25T07:10:18;1.45;;;1.00;;
42420;SDS011;28063;48.140;11.588;2023-04-25T07:12:44;1.20;;;0.95;;
42420;SDS011;28063;48.140;11.588;2023-04-25T07:15:09;1.63;;;1.13;;
42420;SDS011;28063;48.140;11.588;2023-04-25T07:17:36;1.38;;;1.00;;
42420;SDS011;28063;48.140;11.588;2023-04-25T07:20:02;0.90;;;0.68;;
42420;SDS011;28063;48.140;11.588;2023-04-25T07:22:29;1.50;;;1.00;;
42420;SDS011;28063;48.140;11.588;2023-04-25T07:24:54;2.25;;;1.20;;
42420;SDS011;28063;48.140;11.588;2023-04-25T07:27:20;2.58;;;1.48;;
42420;SDS011;28063;48.140;11.588;2023-04-25T07:29:46;1.75;;;1.13;;
42420;SDS011;28063;48.140;11.588;2023-04-25T07:32:11;1.20;;;0.73;;
42420;SDS011;28063;48.140;11.588;2023-04-25T07:34:38;0.90;;;0.82;;
42420;SDS011;28063;48.140;11.588;2023-04-25T07:37:04;1.42;;;1.02;;
42420;SDS011;28063;48.140;11.588;2023-04-25T07:39:30;0.88;;;0.82;;
42420;SDS011;28063;48.140;11.588;2023-04-25T07:41:56;0.95;;;0.60;;
42420;SDS011;28063;48.140;11.588;2023-04-25T07:44:23;0.60;;;0.60;;
42420;SDS011;28063;48.140;11.588;2023-04-25T07:46:50;2.45;;;0.70;;
42420;SDS011;28063;48.140;11.588;2023-04-25T07:49:16;0.75;;;0.70;;
42420;SDS011;28063;48.140;11.588;2023-04-25T07:51:42;1.40;;;1.30;;
42420;SDS011;28063;48.140;11.588;2023-04-25T07:54:14;3.65;;;1.60;;
42420;SDS011;28063;48.140;11.588;2023-04-25T07:56:40;1.35;;;1.08;;
42420;SDS011;28063;48.140;11.588;2023-04-25T07:59:06;1.65;;;1.20;;
42420;SDS011;28063;48.140;11.588;2023-04-25T08:01:33;1.92;;;1.33;;
42420;SDS011;28063;48.140;11.588;2023-04-25T08:03:59;1.70;;;1.40;;
42420;SDS011;28063;48.140;11.588;2023-04-25T08:06:24;5.47;;;2.25;;
42420;SDS011;28063;48.140;11.588;2023-04-25T08:08:50;2.42;;;1.52;;
42420;SDS011;28063;48.140;11.588;2023-04-25T08:11:16;5.60;;;1.92;;
42420;SDS011;28063;48.140;11.588;2023-04-25T08:13:42;4.63;;;1.63;;
42420;SDS011;28063;48.140;11.588;2023-04-25T08:16:08;1.65;;;1.00;;
42420;SDS011;28063;48.140;11.588;2023-04-25T08:18:34;5.90;;;1.70;;
42420;SDS011;28063;48.140;11.588;2023-04-25T08:21:00;2.17;;;1.60;;
42420;SDS011;28063;48.140;11.588;2023-04-25T08:23:25;1.45;;;1.27;;
42420;SDS011;28063;48.140;11.588;2023-04-25T08:25:51;2.85;;;1.80;;
42420;SDS011;28063;48.140;11.588;2023-04-25T08:28:17;5.95;;;1.52;;
42420;SDS011;28063;48.140;11.588;2023-04-25T08:30:42;1.75;;;1.38;;
42420;SDS011;28063;48.140;11.588;2023-04-25T08:33:08;3.63;;;1.90;;
42420;SDS011;28063;48.140;11.588;2023-04-25T08:35:34;3.22;;;1.60;;
42420;SDS011;28063;48.140;11.588;2023-04-25T08:38:00;1.85;;;1.05;;
42420;SDS011;28063;48.140;11.588;2023-04-25T08:40:26;2.63;;;1.40;;
42420;SDS011;28063;48.140;11.588;2023-04-25T08:42:55;1.75;;;1.60;;
42420;SDS011;28063;48.140;11.588;2023-04-25T08:45:22;6.47;;;2.40;;
42420;SDS011;28063;48.140;11.588;2023-04-25T08:47:48;3.03;;;1.10;;
42420;SDS011;28063;48.140;11.588;2023-04-25T08:50:17;1.25;;;1.15;;
42420;SDS011;28063;48.140;11.588;2023-04-25T08:52:46;1.83;;;1.25;;
42420;SDS011;28063;48.140;11.588;2023-04-25T08:55:13;3.67;;;1.30;;
42420;SDS011;28063;48.140;11.588;2023-04-25T08:57:40;2.10;;;1.08;;
42420;SDS011;28063;48.140;11.588;2023-04-25T09:00:08;2.45;;;1.10;;
42420;SDS011;28063;48.140;11.588;2023-04-25T09:02:36;2.28;;;1.30;;
42420;SDS011;28063;48.140;11.588;2023-04-25T09:05:02;1.60;;;1.48;;
42420;SDS011;28063;48.140;11.588;2023-04-25T09:07:29;2.78;;;1.00;;
42420;SDS011;28063;48.140;11.588;2023-04-25T09:09:55;1.15;;;0.95;;
42420;SDS011;28063;48.140;11.588;2023-04-25T09:12:21;2.40;;;1.02;;
42420;SDS011;28063;48.140;11.588;2023-04-25T09:15:06;2.08;;;0.93;;
42420;SDS011;28063;48.140;11.588;2023-04-25T09:17:33;3.97;;;1.77;;
42420;SDS011;28063;48.140;11.588;2023-04-25T09:20:07;2.45;;;1.05;;
42420;SDS011;28063;48.140;11.588;2023-04-25T09:22:35;2.08;;;1.10;;
42420;SDS011;28063;48.140;11.588;2023-04-25T09:25:02;0.63;;;0.60;;
42420;SDS011;28063;48.140;11.588;2023-04-25T09:27:33;2.65;;;0.95;;
42420;SDS011;28063;48.140;11.588;2023-04-25T09:29:59;1.27;;;0.70;;
42420;SDS011;28063;48.140;11.588;2023-04-25T09:32:25;1.23;;;1.00;;
42420;SDS011;28063;48.140;11.588;2023-04-25T09:34:52;2.63;;;1.10;;
42420;SDS011;28063;48.140;11.588;2023-04-25T09:37:22;1.42;;;0.82;;
42420;SDS011;28063;48.140;11.588;2023-04-25T09:39:51;0.85;;;0.80;;
42420;SDS011;28063;48.140;11.588;2023-04-25T09:42:24;3.13;;;0.75;;
42420;SDS011;28063;48.140;11.588;2023-04-25T09:44:52;1.50;;;1.10;;
42420;SDS011;28063;48.140;11.588;2023-04-25T09:47:19;2.35;;;0.95;;
42420;SDS011;28063;48.140;11.588;2023-04-25T09:49:47;0.88;;;0.80;;
42420;SDS011;28063;48.140;11.588;2023-04-25T09:52:17;2.15;;;0.93;;
42420;SDS011;28063;48.140;11.588;2023-04-25T09:54:48;4.32;;;1.05;;
42420;SDS011;28063;48.140;11.588;2023-04-25T09:57:16;1.08;;;0.80;;
42420;SDS011;28063;48.140;11.588;2023-04-25T09:59:49;3.47;;;1.20;;
42420;SDS011;28063;48.140;11.588;2023-04-25T10:02:17;1.85;;;0.90;;
42420;SDS011;28063;48.140;11.588;2023-04-25T10:04:47;1.45;;;0.85;;
42420;SDS011;28063;48.140;11.588;2023-04-25T10:07:17;1.13;;;0.70;;
42420;SDS011;28063;48.140;11.588;2023-04-25T10:09:44;1.15;;;0.80;;
42420;SDS011;28063;48.140;11.588;2023-04-25T10:12:14;2.00;;;0.88;;
42420;SDS011;28063;48.140;11.588;2023-04-25T10:14:41;1.50;;;1.02;;
42420;SDS011;28063;48.140;11.588;2023-04-25T10:17:08;1.75;;;0.88;;
42420;SDS011;28063;48.140;11.588;2023-04-25T10:19:35;1.52;;;0.90;;
42420;SDS011;28063;48.140;11.588;2023-04-25T10:22:07;1.80;;;0.77;;
42420;SDS011;28063;48.140;11.588;2023-04-25T10:25:00;2.55;;;0.80;;
42420;SDS011;28063;48.140;11.588;2023-04-25T10:27:28;0.88;;;0.80;;
42420;SDS011;28063;48.140;11.588;2023-04-25T10:30:02;1.75;;;0.80;;
42420;SDS011;28063;48.140;11.588;2023-04-25T10:32:37;1.02;;;0.90;;
42420;SDS011;28063;48.140;11.588;2023-04-25T10:40:38;3.30;;;1.10;;
42420;SDS011;28063;48.140;11.588;2023-04-25T10:48:59;3.50;;;1.23;;
42420;SDS011;28063;48.140;11.588;2023-04-25T10:54:02;1.00;;;0.95;;
42420;SDS011;28063;48.140;11.588;2023-04-25T10:56:29;1.80;;;1.10;;
42420;SDS011;28063;48.140;11.588;2023-04-25T11:01:45;4.22;;;1.17;;
42420;SDS011;28063;48.140;11.588;2023-04-25T11:09:53;2.97;;;1.27;;
42420;SDS011;28063;48.140;11.588;2023-04-25T11:12:19;2.45;;;1.17;;
42420;SDS011;28063;48.140;11.588;2023-04-25T11:14:45;1.65;;;0.98;;
42420;SDS011;28063;48.140;11.588;2023-04-25T11:17:11;1.98;;;0.80;;
42420;SDS011;28063;48.140;11.588;2023-04-25T11:19:36;2.50;;;1.00;;
42420;SDS011;28063;48.140;11.588;2023-04-25T11:22:02;2.00;;;0.90;;
42420;SDS011;28063;48.140;11.588;2023-04-25T11:24:29;0.95;;;0.50;;
42420;SDS011;28063;48.140;11.588;2023-04-25T11:26:54;1.15;;;0.70;;
42420;SDS011;28063;48.140;11.588;2023-04-25T11:29:22;1.05;;;0.70;;
42420;SDS011;28063;48.140;11.588;2023-04-25T11:31:48;0.90;;;0.57;;
42420;SDS011;28063;48.140;11.588;2023-04-25T11:34:20;1.23;;;0.70;;
42420;SDS011;28063;48.140;11.588;2023-04-25T11:36:45;0.63;;;0.63;;
42420;SDS011;28063;48.140;11.588;2023-04-25T11:39:12;1.27;;;0.80;;
42420;SDS011;28063;48.140;11.588;2023-04-25T11:41:38;1.48;;;1.05;;
42420;SDS011;28063;48.140;11.588;2023-04-25T11:44:05;1.20;;;0.82;;
42420;SDS011;28063;48.140;11.588;2023-04-25T11:46:33;1.95;;;0.90;;
42420;SDS011;28063;48.140;11.588;2023-04-25T11:48:59;1.45;;;0.95;;
42420;SDS011;28063;48.140;11.588;2023-04-25T11:51:25;2.28;;;1.05;;
42420;SDS011;28063;48.140;11.588;2023-04-25T11:53:52;1.48;;;0.80;;
42420;SDS011;28063;48.140;11.588;2023-04-25T11:56:17;2.53;;;1.10;;
42420;SDS011;28063;48.140;11.588;2023-04-25T11:58:56;3.70;;;1.38;;
42420;SDS011;28063;48.140;11.588;2023-04-25T12:01:32;0.82;;;0.73;;
42420;SDS011;28063;48.140;11.588;2023-04-25T12:04:15;1.23;;;0.90;;
42420;SDS011;28063;48.140;11.588;2023-04-25T12:06:46;1.27;;;0.95;;
42420;SDS011;28063;48.140;11.588;2023-04-25T12:09:13;1.50;;;0.80;;
42420;SDS011;28063;48.140;11.588;2023-04-25T12:16:52;0.93;;;0.63;;
42420;SDS011;28063;48.140;11.588;2023-04-25T12:19:20;0.60;;;0.60;;
42420;SDS011;28063;48.140;11.588;2023-04-25T12:21:46;0.47;;;0.45;;
42420;SDS011;28063;48.140;11.588;2023-04-25T12:24:14;2.10;;;0.70;;
42420;SDS011;28063;48.140;11.588;2023-04-25T12:29:21;1.38;;;0.70;;
42420;SDS011;28063;48.140;11.588;2023-04-25T12:31:49;0.80;;;0.77;;
42420;SDS011;28063;48.140;11.588;2023-04-25T12:34:16;0.40;;;0.40;;
42420;SDS011;28063;48.140;11.588;2023-04-25T12:36:42;0.70;;;0.70;;
42420;SDS011;28063;48.140;11.588;2023-04-25T12:39:08;0.38;;;0.38;;
42420;SDS011;28063;48.140;11.588;2023-04-25T12:41:40;0.52;;;0.52;;
42420;SDS011;28063;48.140;11.588;2023-04-25T12:44:06;0.70;;;0.70;;
42420;SDS011;28063;48.140;11.588;2023-04-25T12:46:32;0.75;;;0.60;;
42420;SDS011;28063;48.140;11.588;2023-04-25T12:48:57;0.60;;;0.50;;
42420;SDS011;28063;48.140;11.588;2023-04-25T12:51:23;0.40;;;0.40;;
42420;SDS011;28063;48.140;11.588;2023-04-25T12:53:50;2.17;;;0.90;;
42420;SDS011;28063;48.140;11.588;2023-04-25T12:56:16;0.50;;;0.50;;
42420;SDS011;28063;48.140;11.588;2023-04-25T12:58:42;0.93;;;0.68;;
42420;SDS011;28063;48.140;11.588;2023-04-25T13:01:09;2.58;;;0.75;;
42420;SDS011;28063;48.140;11.588;2023-04-25T13:03:34;1.08;;;0.90;;
42420;SDS011;28063;48.140;11.588;2023-04-25T13:06:00;0.55;;;0.40;;
42420;SDS011;28063;48.140;11.588;2023-04-25T13:08:26;0.50;;;0.50;;
42420;SDS011;28063;48.140;11.588;2023-04-25T13:10:52;1.05;;;0.52;;
42420;SDS011;28063;48.140;11.588;2023-04-25T13:13:17;4.10;;;0.75;;
42420;SDS011;28063;48.140;11.588;2023-04-25T13:15:43;1.17;;;0.65;;
42420;SDS011;28063;48.140;11.588;2023-04-25T13:18:09;1.85;;;0.52;;
42420;SDS011;28063;48.140;11.588;2023-04-25T13:20:34;0.63;;;0.63;;
42420;SDS011;28063;48.140;11.588;2023-04-25T13:23:00;0.70;;;0.60;;
42420;SDS011;28063;48.140;11.588;2023-04-25T13:25:26;0.43;;;0.43;;
42420;SDS011;28063;48.140;11.588;2023-04-25T13:27:52;0.45;;;0.45;;
42420;SDS011;28063;48.140;11.588;2023-04-25T13:30:17;0.90;;;0.60;;
42420;SDS011;28063;48.140;11.588;2023-04-25T13:32:43;1.15;;;0.90;;
42420;SDS011;28063;48.140;11.588;2023-04-25T13:35:12;2.03;;;0.68;;
42420;SDS011;28063;48.140;11.588;2023-04-25T13:37:39;1.85;;;0.77;;
42420;SDS011;28063;48.140;11.588;2023-04-25T13:40:06;1.02;;;0.90;;
42420;SDS011;28063;48.140;11.588;2023-04-25T13:42:34;3.05;;;0.80;;
42420;SDS011;28063;48.140;11.588;2023-04-25T13:45:01;0.70;;;0.47;;
42420;SDS011;28063;48.140;11.588;2023-04-25T13:47:28;0.80;;;0.80;;
42420;SDS011;28063;48.140;11.588;2023-04-25T13:49:55;1.33;;;0.40;;
42420;SDS011;28063;48.140;11.588;2023-04-25T13:52:20;0.60;;;0.60;;
42420;SDS011;28063;48.140;11.588;2023-04-25T13:54:46;0.70;;;0.63;;
42420;SDS011;28063;48.140;11.588;2023-04-25T13:57:12;3.30;;;0.80;;
42420;SDS011;28063;48.140;11.588;2023-04-25T13:59:38;0.75;;;0.43;;
42420;SDS011;28063;48.140;11.588;2023-04-25T14:02:06;1.60;;;0.68;;
42420;SDS011;28063;48.140;11.588;2023-04-25T14:04:32;1.20;;;1.10;;
42420;SDS011;28063;48.140;11.588;2023-04-25T14:06:58;0.90;;;0.90;;
42420;SDS011;28063;48.140;11.588;2023-04-25T14:09:24;7.68;;;4.47;;
42420;SDS011;28063;48.140;11.588;2023-04-25T14:11:52;2.83;;;2.13;;
42420;SDS011;28063;48.140;11.588;2023-04-25T14:14:18;10.52;;;6.07;;
42420;SDS011;28063;48.140;11.588;2023-04-25T14:16:44;4.78;;;3.50;;
42420;SDS011;28063;48.140;11.588;2023-04-25T14:19:10;7.55;;;5.05;;
42420;SDS011;28063;48.140;11.588;2023-04-25T14:21:36;7.30;;;4.30;;
42420;SDS011;28063;48.140;11.588;2023-04-25T14:24:02;13.63;;;8.25;;
42420;SDS011;28063;48.140;11.588;2023-04-25T14:26:28;12.02;;;7.80;;
42420;SDS011;28063;48.140;11.588;2023-04-25T14:28:53;6.13;;;5.18;;
42420;SDS011;28063;48.140;11.588;2023-04-25T14:31:19;2.72;;;2.45;;
42420;SDS011;28063;48.140;11.588;2023-04-25T14:33:45;19.23;;;9.43;;
42420;SDS011;28063;48.140;11.588;2023-04-25T14:36:11;10.38;;;5.93;;
42420;SDS011;28063;48.140;11.588;2023-04-25T14:38:37;4.93;;;3.08;;
42420;SDS011;28063;48.140;11.588;2023-04-25T14:41:03;2.60;;;2.10;;
42420;SDS011;28063;48.140;11.588;2023-04-25T14:43:29;2.65;;;2.05;;
42420;SDS011;28063;48.140;11.588;2023-04-25T14:45:54;2.83;;;0.80;;
42420;SDS011;28063;48.140;11.588;2023-04-25T14:48:20;0.63;;;0.63;;
42420;SDS011;28063;48.140;11.588;2023-04-25T14:50:46;1.98;;;1.88;;
42420;SDS011;28063;48.140;11.588;2023-04-25T14:53:12;3.05;;;2.85;;
42420;SDS011;28063;48.140;11.588;2023-04-25T14:55:38;2.03;;;1.92;;
42420;SDS011;28063;48.140;11.588;2023-04-25T14:58:04;2.30;;;1.75;;
42420;SDS011;28063;48.140;11.588;2023-04-25T15:00:30;1.10;;;1.10;;